createdAt,value
2022-09-01T00:01:30.740Z,6.43
2022-09-01T00:04:03.807Z,6.50
2022-09-01T00:06:32.903Z,6.03
2022-09-01T00:09:03.892Z,6.70
2022-09-01T00:11:32.079Z,6.00
2022-09-01T00:14:01.799Z,6.90
2022-09-01T00:16:30.949Z,6.33
2022-09-01T00:18:58.009Z,6.68
2022-09-01T00:21:36.891Z,7.10
2022-09-01T00:24:04.654Z,7.18
2022-09-01T00:26:31.991Z,7.20
2022-09-01T00:28:59.645Z,7.23
2022-09-01T00:31:27.780Z,7.50
2022-09-01T00:33:55.232Z,7.05
2022-09-01T00:36:23.303Z,7.30
2022-09-01T00:38:51.315Z,7.38
2022-09-01T00:41:20.982Z,7.30
2022-09-01T00:43:56.860Z,7.57
2022-09-01T00:46:29.015Z,7.20
2022-09-01T00:49:21.801Z,7.10
2022-09-01T00:51:53.166Z,8.15
2022-09-01T00:54:24.392Z,7.67
2022-09-01T00:56:54.818Z,7.55
2022-09-01T00:59:27.580Z,8.25
2022-09-01T01:01:56.065Z,8.93
2022-09-01T01:04:23.426Z,9.13
2022-09-01T01:07:01.787Z,8.93
2022-09-01T01:09:34.294Z,8.38
2022-09-01T01:12:04.307Z,8.38
2022-09-01T01:14:32.020Z,8.57
2022-09-01T01:17:00.853Z,9.20
2022-09-01T01:20:07.179Z,9.00
2022-09-01T01:23:01.579Z,8.40
2022-09-01T01:25:44.313Z,9.23
2022-09-01T01:28:12.899Z,7.93
2022-09-01T01:30:43.438Z,9.88
2022-09-01T01:33:11.482Z,9.50
2022-09-01T01:35:40.083Z,9.95
2022-09-01T01:38:08.173Z,10.20
2022-09-01T01:40:36.965Z,10.18
2022-09-01T01:43:04.853Z,10.77
2022-09-01T01:45:31.802Z,11.20
2022-09-01T01:47:59.219Z,10.77
2022-09-01T01:50:35.999Z,11.65
2022-09-01T01:53:10.821Z,9.82
2022-09-01T01:55:41.830Z,11.27
2022-09-01T01:58:09.889Z,10.00
2022-09-01T02:00:37.800Z,10.95
2022-09-01T02:03:06.677Z,11.32
2022-09-01T02:05:36.359Z,10.63
2022-09-01T02:08:07.526Z,11.20
2022-09-01T02:10:39.278Z,11.70
2022-09-01T02:13:07.759Z,12.75
2022-09-01T02:15:43.237Z,14.45
2022-09-01T02:18:14.299Z,12.70
2022-09-01T02:20:42.930Z,13.77
2022-09-01T02:23:11.585Z,12.77
2022-09-01T02:26:14.022Z,11.93
2022-09-01T02:28:40.049Z,12.27
2022-09-01T02:31:09.091Z,12.65
2022-09-01T02:33:37.985Z,12.90
2022-09-01T02:36:15.285Z,12.37
2022-09-01T02:38:46.074Z,12.65
2022-09-01T02:41:14.465Z,11.63
2022-09-01T02:43:43.520Z,11.90
2022-09-01T02:46:10.883Z,11.60
2022-09-01T02:48:41.360Z,11.97
2022-09-01T02:51:11.958Z,12.32
2022-09-01T02:53:39.774Z,12.43
2022-09-01T02:56:14.366Z,12.02
2022-09-01T02:58:46.236Z,12.70
2022-09-01T03:01:29.586Z,13.00
2022-09-01T03:04:05.881Z,12.23
2022-09-01T03:06:34.539Z,12.10
2022-09-01T03:09:04.068Z,11.90
2022-09-01T03:11:32.620Z,11.75
2022-09-01T03:14:00.011Z,11.37
2022-09-01T03:16:30.459Z,11.63
2022-09-01T03:18:57.948Z,12.18
2022-09-01T03:21:25.138Z,10.85
2022-09-01T03:23:53.773Z,10.93
2022-09-01T03:26:23.130Z,10.30
2022-09-01T03:28:52.294Z,11.27
2022-09-01T03:31:20.255Z,10.50
2022-09-01T03:33:48.928Z,10.25
2022-09-01T03:36:25.440Z,10.63
2022-09-01T03:38:52.854Z,11.83
2022-09-01T03:41:25.154Z,11.73
2022-09-01T03:43:58.119Z,11.23
2022-09-01T03:46:36.272Z,12.00
2022-09-01T03:49:07.525Z,11.63
2022-09-01T03:51:39.141Z,11.00
2022-09-01T03:54:08.996Z,10.95
2022-09-01T03:56:35.973Z,11.50
2022-09-01T03:59:03.106Z,11.50
2022-09-01T04:01:37.970Z,11.88
2022-09-01T04:04:06.761Z,13.00
2022-09-01T04:06:34.297Z,12.93
2022-09-01T04:09:03.281Z,14.35
2022-09-01T04:11:35.136Z,15.82
2022-09-01T04:14:02.272Z,18.05
2022-09-01T04:16:53.151Z,16.90
2022-09-01T04:19:26.665Z,15.98
2022-09-01T04:22:01.015Z,16.90
2022-09-01T04:24:33.604Z,16.30
2022-09-01T04:27:02.821Z,17.77
2022-09-01T04:29:31.931Z,17.37
2022-09-01T04:32:12.808Z,15.57
2022-09-01T04:34:42.551Z,17.05
2022-09-01T04:37:15.271Z,16.48
2022-09-01T04:39:54.824Z,16.73
2022-09-01T04:42:25.137Z,16.30
2022-09-01T04:44:53.974Z,17.13
2022-09-01T04:47:31.698Z,15.88
2022-09-01T04:50:14.157Z,14.27
2022-09-01T04:52:45.607Z,13.25
2022-09-01T04:55:28.740Z,12.30
2022-09-01T04:58:01.806Z,13.88
2022-09-01T05:00:32.309Z,13.40
2022-09-01T05:03:05.415Z,12.80
2022-09-01T05:06:15.910Z,13.32
2022-09-01T05:08:47.223Z,13.47
2022-09-01T05:11:25.831Z,11.68
2022-09-01T05:13:59.245Z,11.65
2022-09-01T05:16:27.934Z,12.90
2022-09-01T05:18:58.022Z,11.68
2022-09-01T05:21:29.855Z,11.30
2022-09-01T05:24:01.536Z,11.57
2022-09-01T05:26:31.716Z,10.20
2022-09-01T05:29:03.309Z,10.18
2022-09-01T05:31:38.131Z,9.88
2022-09-01T05:34:05.376Z,9.70
2022-09-01T05:36:33.564Z,9.93
2022-09-01T05:39:02.154Z,11.02
2022-09-01T05:41:29.341Z,11.00
2022-09-01T05:44:00.638Z,11.23
2022-09-01T05:46:30.029Z,11.30
2022-09-01T05:48:58.084Z,10.52
2022-09-01T05:51:43.768Z,10.57
2022-09-01T05:54:12.148Z,10.82
2022-09-01T05:56:43.706Z,10.63
2022-09-01T05:59:23.583Z,11.17
2022-09-01T06:01:54.071Z,11.77
2022-09-01T06:04:23.217Z,11.25
2022-09-01T06:07:10.881Z,11.50
2022-09-01T06:09:47.887Z,10.48
2022-09-01T06:12:20.135Z,9.80
2022-09-01T06:14:48.469Z,9.70
2022-09-01T06:17:18.856Z,10.20
2022-09-01T06:19:46.791Z,9.90
2022-09-01T06:22:15.000Z,10.75
2022-09-01T06:24:43.563Z,9.40
2022-09-01T06:27:12.325Z,9.80
2022-09-01T06:29:40.008Z,9.63
2022-09-01T06:32:12.623Z,10.07
2022-09-01T06:34:42.565Z,8.77
2022-09-01T06:37:11.086Z,9.23
2022-09-01T06:39:38.290Z,9.55
2022-09-01T06:42:06.776Z,9.43
2022-09-01T06:44:46.104Z,39.47
2022-09-01T06:47:13.446Z,12.30
2022-09-01T06:49:41.027Z,10.43
2022-09-01T06:52:14.068Z,10.18
2022-09-01T06:54:43.909Z,9.63
2022-09-01T06:59:58.358Z,10.13
2022-09-01T07:02:26.813Z,9.53
2022-09-01T07:08:19.757Z,10.10
2022-09-01T07:14:16.461Z,10.80
2022-09-01T07:16:51.966Z,10.00
2022-09-01T07:19:20.721Z,10.55
2022-09-01T07:25:09.780Z,9.88
2022-09-01T07:27:51.272Z,10.85
2022-09-01T07:30:24.129Z,10.63
2022-09-01T07:39:48.645Z,9.85
2022-09-01T07:42:59.235Z,10.93
2022-09-01T07:48:03.616Z,8.73
2022-09-01T07:51:35.101Z,8.82
2022-09-01T07:53:33.054Z,8.85
2022-09-01T07:56:07.457Z,8.82
2022-09-01T07:58:38.440Z,8.33
2022-09-01T08:01:10.165Z,9.13
2022-09-01T08:03:39.010Z,8.50
2022-09-01T08:06:11.503Z,8.55
2022-09-01T08:08:42.747Z,9.23
2022-09-01T08:11:09.573Z,8.57
2022-09-01T08:13:42.021Z,8.00
2022-09-01T08:16:18.092Z,8.02
2022-09-01T08:18:48.592Z,7.13
2022-09-01T08:21:28.332Z,7.55
2022-09-01T08:24:22.234Z,7.80
2022-09-01T08:26:49.152Z,7.30
2022-09-01T08:29:16.417Z,8.10
2022-09-01T08:31:46.406Z,9.02
2022-09-01T08:34:14.212Z,6.70
2022-09-01T08:36:40.979Z,5.73
2022-09-01T08:39:07.803Z,6.07
2022-09-01T08:42:01.975Z,6.18
2022-09-01T08:44:31.650Z,5.50
2022-09-01T08:47:05.699Z,6.07
2022-09-01T08:49:43.928Z,5.80
2022-09-01T08:52:37.842Z,6.65
2022-09-01T08:55:22.262Z,5.10
2022-09-01T08:57:57.107Z,4.50
2022-09-01T09:00:33.344Z,4.40
2022-09-01T09:03:41.796Z,4.67
2022-09-01T09:06:29.716Z,4.20
2022-09-01T09:09:07.535Z,3.45
2022-09-01T09:11:50.312Z,3.42
2022-09-01T09:14:45.733Z,3.40
2022-09-01T09:17:17.666Z,3.50
2022-09-01T09:19:45.759Z,4.05
2022-09-01T09:22:19.528Z,3.55
2022-09-01T09:25:05.039Z,4.32
2022-09-01T09:27:35.664Z,3.83
2022-09-01T09:30:11.168Z,3.00
2022-09-01T09:33:25.125Z,2.83
2022-09-01T09:35:38.974Z,2.83
2022-09-01T09:38:29.050Z,2.75
2022-09-01T09:41:17.706Z,2.55
2022-09-01T09:44:13.030Z,2.40
2022-09-01T09:46:46.045Z,2.20
2022-09-01T09:49:36.953Z,2.08
2022-09-01T09:52:08.788Z,3.10
2022-09-01T09:54:40.919Z,2.67
2022-09-01T09:57:14.539Z,2.00
2022-09-01T10:00:04.315Z,2.47
2022-09-01T10:02:43.080Z,2.50
2022-09-01T10:05:29.902Z,2.45
2022-09-01T10:07:57.337Z,2.70
2022-09-01T10:10:37.609Z,2.80
2022-09-01T10:13:07.945Z,2.60
2022-09-01T10:15:35.480Z,3.10
2022-09-01T10:21:08.585Z,2.35
2022-09-01T10:23:38.716Z,2.43
2022-09-01T10:26:35.332Z,2.33
2022-09-01T10:29:16.027Z,2.75
2022-09-01T10:31:43.304Z,2.47
2022-09-01T10:34:19.446Z,2.47
2022-09-01T10:36:55.660Z,2.80
2022-09-01T10:39:28.688Z,3.10
2022-09-01T10:42:07.225Z,2.60
2022-09-01T10:44:38.855Z,2.70
2022-09-01T10:47:14.975Z,2.67
2022-09-01T10:49:46.867Z,3.07
2022-09-01T10:52:43.495Z,2.95
2022-09-01T10:55:26.864Z,2.97
2022-09-01T10:58:07.351Z,3.22
2022-09-01T11:00:35.455Z,2.78
2022-09-01T11:06:12.350Z,3.28
2022-09-01T11:09:05.126Z,3.00
2022-09-01T11:11:40.295Z,2.90
2022-09-01T11:14:19.691Z,3.70
2022-09-01T11:17:16.704Z,2.90
2022-09-01T11:20:06.691Z,3.05
2022-09-01T11:22:33.440Z,3.20
2022-09-01T11:25:42.267Z,3.10
2022-09-01T11:28:15.619Z,3.70
2022-09-01T11:31:22.456Z,3.17
2022-09-01T11:33:55.261Z,3.00
2022-09-01T11:36:31.487Z,3.47
2022-09-01T11:39:26.835Z,3.20
2022-09-01T11:41:57.610Z,3.30
2022-09-01T11:44:48.842Z,2.80
2022-09-01T11:47:22.503Z,2.80
2022-09-01T11:49:58.431Z,2.97
2022-09-01T11:52:30.521Z,2.97
2022-09-01T11:54:58.855Z,3.40
2022-09-01T11:57:37.879Z,2.67
2022-09-01T12:00:09.909Z,3.05
2022-09-01T12:02:50.913Z,2.90
2022-09-01T12:05:36.165Z,3.10
2022-09-01T12:08:14.975Z,3.17
2022-09-01T12:10:44.405Z,3.13
2022-09-01T12:13:12.878Z,2.88
2022-09-01T12:16:07.058Z,3.15
2022-09-01T12:18:35.602Z,3.05
2022-09-01T12:21:07.379Z,3.20
2022-09-01T12:23:45.952Z,2.60
2022-09-01T12:26:19.574Z,3.08
2022-09-01T12:28:49.747Z,3.00
2022-09-01T12:31:20.581Z,3.05
2022-09-01T12:33:48.555Z,2.78
2022-09-01T12:36:15.554Z,2.50
2022-09-01T12:38:42.521Z,2.30
2022-09-01T12:41:27.028Z,2.40
2022-09-01T12:43:56.395Z,2.17
2022-09-01T12:46:43.407Z,2.65
2022-09-01T12:49:34.975Z,2.13
2022-09-01T12:52:20.371Z,2.60
2022-09-01T12:54:50.068Z,2.60
2022-09-01T12:57:27.930Z,2.60
2022-09-01T13:00:12.924Z,2.42
2022-09-01T13:02:41.342Z,2.93
2022-09-01T13:05:20.287Z,2.53
2022-09-01T13:07:47.435Z,2.45
2022-09-01T13:10:14.814Z,2.55
2022-09-01T13:12:45.754Z,2.58
2022-09-01T13:17:41.134Z,2.97
2022-09-01T13:20:09.331Z,2.38
2022-09-01T13:22:36.218Z,2.70
2022-09-01T13:25:03.180Z,3.05
2022-09-01T13:27:30.020Z,2.83
2022-09-01T13:29:57.155Z,2.78
2022-09-01T13:32:24.654Z,2.88
2022-09-01T13:34:53.357Z,2.83
2022-09-01T13:37:21.596Z,2.60
2022-09-01T13:39:49.038Z,2.77
2022-09-01T13:42:17.289Z,2.90
2022-09-01T13:44:44.817Z,2.50
2022-09-01T13:50:09.679Z,2.83
2022-09-01T13:52:44.020Z,2.60
2022-09-01T13:55:13.302Z,2.75
2022-09-01T13:57:40.107Z,2.78
2022-09-01T14:00:13.280Z,2.60
2022-09-01T14:02:43.108Z,2.80
2022-09-01T14:05:10.528Z,2.77
2022-09-01T14:07:37.532Z,2.42
2022-09-01T14:10:05.231Z,2.78
2022-09-01T14:12:32.623Z,2.45
2022-09-01T14:15:17.148Z,2.72
2022-09-01T14:17:48.536Z,2.80
2022-09-01T14:20:21.385Z,2.50
2022-09-01T14:22:50.578Z,2.72
2022-09-01T14:25:19.409Z,2.30
2022-09-01T14:27:47.470Z,2.50
2022-09-01T14:30:21.626Z,2.43
2022-09-01T14:32:49.440Z,2.88
2022-09-01T14:35:17.758Z,2.40
2022-09-01T14:37:44.961Z,2.42
2022-09-01T14:40:17.691Z,2.45
2022-09-01T14:42:49.241Z,2.27
2022-09-01T14:45:22.147Z,2.65
2022-09-01T14:47:50.635Z,2.30
2022-09-01T14:50:22.832Z,2.38
2022-09-01T14:52:53.931Z,2.53
2022-09-01T14:55:23.442Z,2.73
2022-09-01T14:57:50.477Z,2.53
2022-09-01T15:00:17.459Z,2.80
2022-09-01T15:02:45.899Z,2.88
2022-09-01T15:05:14.278Z,2.33
2022-09-01T15:07:42.007Z,2.63
2022-09-01T15:10:11.167Z,2.65
2022-09-01T15:12:43.000Z,2.72
2022-09-01T15:15:09.965Z,2.50
2022-09-01T15:17:37.145Z,2.50
2022-09-01T15:20:24.100Z,2.50
2022-09-01T15:22:51.659Z,2.70
2022-09-01T15:25:18.907Z,2.55
2022-09-01T15:27:46.779Z,2.28
2022-09-01T15:30:17.245Z,2.70
2022-09-01T15:32:46.178Z,2.43
2022-09-01T15:35:14.364Z,2.60
2022-09-01T15:37:41.600Z,2.95
2022-09-01T15:40:09.726Z,2.67
2022-09-01T15:42:37.698Z,2.80
2022-09-01T15:45:09.079Z,2.30
2022-09-01T15:47:36.206Z,2.50
2022-09-01T15:50:05.342Z,2.22
2022-09-01T15:52:33.043Z,2.67
2022-09-01T15:55:00.573Z,2.47
2022-09-01T15:57:27.557Z,2.70
2022-09-01T15:59:54.755Z,3.15
2022-09-01T16:02:23.481Z,2.85
2022-09-01T16:04:50.615Z,2.75
2022-09-01T16:07:18.792Z,2.78
2022-09-01T16:09:46.437Z,2.80
2022-09-01T16:12:13.744Z,3.03
2022-09-01T16:14:41.098Z,3.67
2022-09-01T16:17:13.841Z,3.47
2022-09-01T16:20:23.405Z,3.60
2022-09-01T16:23:12.793Z,3.70
2022-09-01T16:25:41.638Z,3.60
2022-09-01T16:28:21.081Z,3.72
2022-09-01T16:30:51.002Z,3.20
2022-09-01T16:33:21.364Z,3.10
2022-09-01T16:36:03.780Z,2.70
2022-09-01T16:38:45.402Z,2.80
2022-09-01T16:41:28.387Z,3.03
2022-09-01T16:44:15.266Z,3.17
2022-09-01T16:47:05.982Z,2.63
2022-09-01T16:49:44.527Z,3.10
2022-09-01T16:52:23.901Z,2.70
2022-09-01T16:55:18.549Z,2.83
2022-09-01T16:58:03.540Z,2.60
2022-09-01T17:00:46.768Z,3.33
2022-09-01T17:03:23.471Z,2.90
2022-09-01T17:06:20.816Z,3.75
2022-09-01T17:08:55.466Z,2.90
2022-09-01T17:11:34.918Z,3.03
2022-09-01T17:14:03.244Z,2.75
2022-09-01T17:16:39.826Z,2.53
2022-09-01T17:19:16.435Z,2.65
2022-09-01T17:21:52.899Z,2.85
2022-09-01T17:24:26.029Z,2.53
2022-09-01T17:26:55.668Z,2.42
2022-09-01T17:29:44.833Z,2.90
2022-09-01T17:32:41.476Z,2.97
2022-09-01T17:35:27.577Z,2.63
2022-09-01T17:38:18.568Z,2.85
2022-09-01T17:41:11.414Z,3.00
2022-09-01T17:43:50.044Z,2.93
2022-09-01T17:46:41.877Z,3.40
2022-09-01T17:49:26.298Z,3.08
2022-09-01T17:52:19.314Z,2.92
2022-09-01T17:54:55.038Z,2.80
2022-09-01T17:57:36.615Z,2.60
2022-09-01T18:00:26.719Z,3.47
2022-09-01T18:03:13.069Z,3.38
2022-09-01T18:05:43.665Z,2.90
2022-09-01T18:08:15.950Z,3.05
2022-09-01T18:11:11.528Z,2.87
2022-09-01T18:13:53.281Z,2.60
2022-09-01T18:17:07.051Z,3.13
2022-09-01T18:19:39.851Z,3.13
2022-09-01T18:22:12.107Z,2.90
2022-09-01T18:25:02.416Z,3.10
2022-09-01T18:27:33.617Z,3.63
2022-09-01T18:30:01.426Z,3.50
2022-09-01T18:33:05.191Z,2.80
2022-09-01T18:35:41.083Z,3.17
2022-09-01T18:38:26.074Z,2.90
2022-09-01T18:41:01.836Z,2.85
2022-09-01T18:43:33.678Z,2.95
2022-09-01T18:46:18.607Z,2.80
2022-09-01T18:49:13.523Z,2.72
2022-09-01T18:51:58.280Z,2.83
2022-09-01T18:54:41.452Z,2.40
2022-09-01T18:57:13.139Z,2.40
2022-09-01T19:00:02.902Z,2.38
2022-09-01T19:02:59.486Z,2.38
2022-09-01T19:05:29.042Z,2.60
2022-09-01T19:08:45.440Z,2.60
2022-09-01T19:11:22.020Z,2.58
2022-09-01T19:14:37.332Z,2.75
2022-09-01T19:17:31.111Z,3.00
2022-09-01T19:20:08.809Z,2.57
2022-09-01T19:22:45.250Z,3.00
2022-09-01T19:25:33.728Z,2.75
2022-09-01T19:28:20.917Z,2.80
2022-09-01T19:31:24.190Z,3.13
2022-09-01T19:34:00.901Z,2.73
2022-09-01T19:36:36.831Z,3.15
2022-09-01T19:39:08.086Z,2.60
2022-09-01T19:41:39.919Z,2.75
2022-09-01T19:44:42.816Z,3.03
2022-09-01T19:47:36.410Z,2.70
2022-09-01T19:50:18.055Z,2.97
2022-09-01T19:53:04.831Z,2.70
2022-09-01T19:55:41.956Z,2.67
2022-09-01T19:58:21.855Z,2.88
2022-09-01T20:01:47.051Z,2.50
2022-09-01T20:04:27.102Z,3.15
2022-09-01T20:07:00.274Z,2.75
2022-09-01T20:09:52.621Z,3.17
2022-09-01T20:12:28.163Z,3.05
2022-09-01T20:15:09.271Z,2.83
2022-09-01T20:18:02.416Z,3.30
2022-09-01T20:20:37.978Z,2.90
2022-09-01T20:23:14.784Z,3.10
2022-09-01T20:25:53.966Z,3.05
2022-09-01T20:28:29.576Z,2.93
2022-09-01T20:31:03.376Z,2.70
2022-09-01T20:33:44.193Z,3.13
2022-09-01T20:36:18.642Z,3.22
2022-09-01T20:39:15.530Z,3.05
2022-09-01T20:41:51.182Z,3.17
2022-09-01T20:44:32.257Z,3.13
2022-09-01T20:46:59.206Z,2.90
2022-09-01T20:49:25.951Z,2.60
2022-09-01T20:51:59.978Z,3.00
2022-09-01T20:54:59.175Z,2.80
2022-09-01T20:58:04.997Z,2.80
2022-09-01T21:00:41.806Z,3.10
2022-09-01T21:03:45.572Z,3.00
2022-09-01T21:06:44.299Z,3.08
2022-09-01T21:09:56.106Z,2.90
2022-09-01T21:12:28.706Z,3.00
2022-09-01T21:14:58.229Z,3.20
2022-09-01T21:17:35.979Z,3.22
2022-09-01T21:20:17.671Z,3.13
2022-09-01T21:22:44.400Z,3.20
2022-09-01T21:25:11.151Z,3.22
2022-09-01T21:27:52.711Z,3.47
2022-09-01T21:30:20.212Z,3.17
2022-09-01T21:32:47.279Z,3.58
2022-09-01T21:35:17.422Z,3.23
2022-09-01T21:37:44.342Z,3.00
2022-09-01T21:40:12.665Z,3.60
2022-09-01T21:42:42.764Z,3.35
2022-09-01T21:45:13.201Z,3.58
2022-09-01T21:47:41.694Z,3.20
2022-09-01T21:50:09.260Z,3.55
2022-09-01T21:52:36.158Z,3.50
2022-09-01T21:55:03.087Z,3.78
2022-09-01T21:57:29.890Z,3.45
2022-09-01T21:59:56.672Z,3.30
2022-09-01T22:02:28.406Z,3.33
2022-09-01T22:04:56.229Z,2.92
2022-09-01T22:07:23.023Z,2.80
2022-09-01T22:09:50.239Z,3.20
2022-09-01T22:12:17.031Z,2.97
2022-09-01T22:14:43.871Z,3.30
2022-09-01T22:17:10.751Z,3.45
2022-09-01T22:19:37.609Z,3.40
2022-09-01T22:22:04.522Z,3.58
2022-09-01T22:24:31.610Z,2.83
2022-09-01T22:26:58.487Z,2.90
2022-09-01T22:29:25.358Z,3.25
2022-09-01T22:31:52.435Z,3.20
2022-09-01T22:34:19.271Z,3.10
2022-09-01T22:36:49.071Z,3.13
2022-09-01T22:39:17.372Z,3.53
2022-09-01T22:41:44.213Z,3.13
2022-09-01T22:44:11.220Z,3.53
2022-09-01T22:46:39.463Z,3.45
2022-09-01T22:49:07.302Z,3.80
2022-09-01T22:51:35.120Z,3.50
2022-09-01T22:54:01.926Z,3.50
2022-09-01T22:56:32.369Z,3.33
2022-09-01T22:59:02.540Z,3.70
2022-09-01T23:01:33.044Z,3.13
2022-09-01T23:04:01.831Z,3.25
2022-09-01T23:06:30.286Z,3.30
2022-09-01T23:08:58.758Z,3.13
2022-09-01T23:11:26.920Z,3.22
2022-09-01T23:13:54.584Z,3.43
2022-09-01T23:16:22.648Z,3.30
2022-09-01T23:18:51.224Z,3.38
2022-09-01T23:21:21.970Z,3.50
2022-09-01T23:23:48.927Z,3.63
2022-09-01T23:26:26.511Z,3.33
2022-09-01T23:28:53.971Z,3.30
2022-09-01T23:31:24.656Z,3.38
2022-09-01T23:33:52.082Z,3.03
2022-09-01T23:36:21.933Z,3.17
2022-09-01T23:38:49.898Z,3.93
2022-09-01T23:41:23.226Z,3.60
2022-09-01T23:43:54.082Z,3.47
2022-09-01T23:46:27.458Z,3.67
2022-09-01T23:48:54.633Z,3.58
2022-09-01T23:51:22.879Z,3.33
2022-09-01T23:53:49.732Z,3.50
2022-09-01T23:56:20.105Z,3.33
2022-09-01T23:58:47.420Z,3.38
